sensor_id;sensor_type;location;lat;lon;timestamp;temperature;humidity
66610;DHT22;53468;48.276;14.416;2023-12-20T00:00:29;0.10;96.50
66610;DHT22;53468;48.276;14.416;2023-12-20T00:05:32;0.10;96.40
66610;DHT22;53468;48.276;14.416;2023-12-20T00:10:37;0.20;96.40
66610;DHT22;53468;48.276;14.416;2023-12-20T00:15:42;0.10;96.10
66610;DHT22;53468;48.276;14.416;2023-12-20T00:20:46;0.10;95.70
66610;DHT22;53468;48.276;14.416;2023-12-20T00:25:51;0.00;95.80
66610;DHT22;53468;48.276;14.416;2023-12-20T00:30:58;0.00;95.50
66610;DHT22;53468;48.276;14.416;2023-12-20T00:36:04;0.00;95.60
66610;DHT22;53468;48.276;14.416;2023-12-20T00:41:08;0.00;95.10
66610;DHT22;53468;48.276;14.416;2023-12-20T00:46:14;-0.10;94.80
66610;DHT22;53468;48.276;14.416;2023-12-20T00:51:18;-0.10;94.70
66610;DHT22;53468;48.276;14.416;2023-12-20T00:56:22;-0.20;94.70
66610;DHT22;53468;48.276;14.416;2023-12-20T01:01:28;-0.30;94.80
66610;DHT22;53468;48.276;14.416;2023-12-20T01:06:34;-0.20;94.90
66610;DHT22;53468;48.276;14.416;2023-12-20T01:11:38;-0.20;95.10
66610;DHT22;53468;48.276;14.416;2023-12-20T01:16:44;-0.20;95.20
66610;DHT22;53468;48.276;14.416;2023-12-20T01:21:48;-0.10;95.30
66610;DHT22;53468;48.276;14.416;2023-12-20T01:26:52;-0.10;95.20
66610;DHT22;53468;48.276;14.416;2023-12-20T01:31:57;0.00;95.10
66610;DHT22;53468;48.276;14.416;2023-12-20T01:37:00;0.00;95.00
66610;DHT22;53468;48.276;14.416;2023-12-20T01:42:04;0.00;94.90
66610;DHT22;53468;48.276;14.416;2023-12-20T01:47:09;0.10;94.70
66610;DHT22;53468;48.276;14.416;2023-12-20T01:52:13;0.00;94.40
66610;DHT22;53468;48.276;14.416;2023-12-20T01:57:16;0.10;94.50
66610;DHT22;53468;48.276;14.416;2023-12-20T02:02:22;0.10;94.40
66610;DHT22;53468;48.276;14.416;2023-12-20T02:07:26;0.20;94.50
66610;DHT22;53468;48.276;14.416;2023-12-20T02:12:30;0.30;94.60
66610;DHT22;53468;48.276;14.416;2023-12-20T02:17:37;0.40;94.70
66610;DHT22;53468;48.276;14.416;2023-12-20T02:22:43;0.50;94.60
66610;DHT22;53468;48.276;14.416;2023-12-20T02:27:47;0.50;94.50
66610;DHT22;53468;48.276;14.416;2023-12-20T02:32:50;0.60;94.80
66610;DHT22;53468;48.276;14.416;2023-12-20T02:37:56;0.70;94.50
66610;DHT22;53468;48.276;14.416;2023-12-20T02:42:59;0.70;94.50
66610;DHT22;53468;48.276;14.416;2023-12-20T02:48:03;0.80;94.50
66610;DHT22;53468;48.276;14.416;2023-12-20T02:53:08;0.80;94.40
66610;DHT22;53468;48.276;14.416;2023-12-20T02:58:12;0.90;94.40
66610;DHT22;53468;48.276;14.416;2023-12-20T03:03:15;1.00;94.30
66610;DHT22;53468;48.276;14.416;2023-12-20T03:08:19;1.00;94.20
66610;DHT22;53468;48.276;14.416;2023-12-20T03:13:23;1.00;94.40
66610;DHT22;53468;48.276;14.416;2023-12-20T03:18:26;1.00;94.30
66610;DHT22;53468;48.276;14.416;2023-12-20T03:23:31;1.10;94.30
66610;DHT22;53468;48.276;14.416;2023-12-20T03:28:35;1.10;94.30
66610;DHT22;53468;48.276;14.416;2023-12-20T03:33:38;1.20;94.40
66610;DHT22;53468;48.276;14.416;2023-12-20T03:38:43;1.20;94.30
66610;DHT22;53468;48.276;14.416;2023-12-20T03:43:47;1.20;94.30
66610;DHT22;53468;48.276;14.416;2023-12-20T03:48:50;1.30;94.30
66610;DHT22;53468;48.276;14.416;2023-12-20T03:53:55;1.30;94.10
66610;DHT22;53468;48.276;14.416;2023-12-20T03:58:59;1.30;94.00
66610;DHT22;53468;48.276;14.416;2023-12-20T04:04:03;1.30;94.20
66610;DHT22;53468;48.276;14.416;2023-12-20T04:09:08;1.30;94.10
66610;DHT22;53468;48.276;14.416;2023-12-20T04:14:11;1.30;94.20
66610;DHT22;53468;48.276;14.416;2023-12-20T04:19:15;1.40;94.30
66610;DHT22;53468;48.276;14.416;2023-12-20T04:24:21;1.40;94.40
66610;DHT22;53468;48.276;14.416;2023-12-20T04:29:24;1.40;94.30
66610;DHT22;53468;48.276;14.416;2023-12-20T04:34:28;1.40;94.30
66610;DHT22;53468;48.276;14.416;2023-12-20T04:39:32;1.40;94.40
66610;DHT22;53468;48.276;14.416;2023-12-20T04:44:36;1.50;94.40
66610;DHT22;53468;48.276;14.416;2023-12-20T04:49:39;1.50;94.40
66610;DHT22;53468;48.276;14.416;2023-12-20T04:54:44;1.50;94.30
66610;DHT22;53468;48.276;14.416;2023-12-20T04:59:47;1.60;94.30
66610;DHT22;53468;48.276;14.416;2023-12-20T05:04:50;1.60;94.20
66610;DHT22;53468;48.276;14.416;2023-12-20T05:09:55;1.70;94.40
66610;DHT22;53468;48.276;14.416;2023-12-20T05:14:58;1.70;94.10
66610;DHT22;53468;48.276;14.416;2023-12-20T05:20:01;1.70;94.40
66610;DHT22;53468;48.276;14.416;2023-12-20T05:25:07;1.70;94.10
66610;DHT22;53468;48.276;14.416;2023-12-20T05:30:11;1.60;94.20
66610;DHT22;53468;48.276;14.416;2023-12-20T05:35:15;1.70;94.10
66610;DHT22;53468;48.276;14.416;2023-12-20T05:40:20;1.60;94.10
66610;DHT22;53468;48.276;14.416;2023-12-20T05:45:23;1.60;94.10
66610;DHT22;53468;48.276;14.416;2023-12-20T05:50:26;1.60;94.30
66610;DHT22;53468;48.276;14.416;2023-12-20T05:55:30;1.70;94.20
66610;DHT22;53468;48.276;14.416;2023-12-20T06:00:33;1.70;94.10
66610;DHT22;53468;48.276;14.416;2023-12-20T06:05:37;1.70;94.10
66610;DHT22;53468;48.276;14.416;2023-12-20T06:10:41;1.70;94.00
66610;DHT22;53468;48.276;14.416;2023-12-20T06:15:45;1.70;94.00
66610;DHT22;53468;48.276;14.416;2023-12-20T06:20:48;1.70;94.10
66610;DHT22;53468;48.276;14.416;2023-12-20T06:26:00;1.70;94.20
66610;DHT22;53468;48.276;14.416;2023-12-20T06:31:03;1.80;94.10
66610;DHT22;53468;48.276;14.416;2023-12-20T06:36:14;1.80;94.20
66610;DHT22;53468;48.276;14.416;2023-12-20T06:41:22;1.80;94.10
66610;DHT22;53468;48.276;14.416;2023-12-20T06:46:29;1.80;94.20
66610;DHT22;53468;48.276;14.416;2023-12-20T06:51:37;1.90;94.40
66610;DHT22;53468;48.276;14.416;2023-12-20T06:56:47;2.20;94.40
66610;DHT22;53468;48.276;14.416;2023-12-20T07:01:54;2.50;93.90
66610;DHT22;53468;48.276;14.416;2023-12-20T07:06:59;2.70;93.60
66610;DHT22;53468;48.276;14.416;2023-12-20T07:12:09;2.80;93.30
66610;DHT22;53468;48.276;14.416;2023-12-20T07:17:15;2.90;93.70
66610;DHT22;53468;48.276;14.416;2023-12-20T07:22:28;2.90;93.80
66610;DHT22;53468;48.276;14.416;2023-12-20T07:27:36;3.00;94.00
66610;DHT22;53468;48.276;14.416;2023-12-20T07:32:43;3.10;94.30
66610;DHT22;53468;48.276;14.416;2023-12-20T07:37:49;3.00;94.60
66610;DHT22;53468;48.276;14.416;2023-12-20T07:42:59;3.10;94.90
66610;DHT22;53468;48.276;14.416;2023-12-20T07:48:04;3.20;95.30
66610;DHT22;53468;48.276;14.416;2023-12-20T07:53:10;3.30;95.40
66610;DHT22;53468;48.276;14.416;2023-12-20T07:58:19;3.40;95.40
66610;DHT22;53468;48.276;14.416;2023-12-20T08:03:28;3.50;95.20
66610;DHT22;53468;48.276;14.416;2023-12-20T08:08:49;3.60;95.10
66610;DHT22;53468;48.276;14.416;2023-12-20T08:14:03;3.60;94.90
66610;DHT22;53468;48.276;14.416;2023-12-20T08:19:08;3.70;94.90
66610;DHT22;53468;48.276;14.416;2023-12-20T08:24:12;3.70;94.70
66610;DHT22;53468;48.276;14.416;2023-12-20T08:29:17;3.70;94.90
66610;DHT22;53468;48.276;14.416;2023-12-20T08:34:20;3.80;94.90
66610;DHT22;53468;48.276;14.416;2023-12-20T08:39:23;3.80;95.20
66610;DHT22;53468;48.276;14.416;2023-12-20T08:44:28;3.80;94.90
66610;DHT22;53468;48.276;14.416;2023-12-20T08:49:31;3.80;95.10
66610;DHT22;53468;48.276;14.416;2023-12-20T08:54:34;3.90;95.00
66610;DHT22;53468;48.276;14.416;2023-12-20T08:59:42;3.90;95.00
66610;DHT22;53468;48.276;14.416;2023-12-20T09:04:46;4.00;94.90
66610;DHT22;53468;48.276;14.416;2023-12-20T09:09:50;4.00;95.00
66610;DHT22;53468;48.276;14.416;2023-12-20T09:14:56;4.10;95.00
66610;DHT22;53468;48.276;14.416;2023-12-20T09:20:01;4.10;95.30
66610;DHT22;53468;48.276;14.416;2023-12-20T09:25:26;4.30;95.10
66610;DHT22;53468;48.276;14.416;2023-12-20T09:31:17;4.40;95.10
66610;DHT22;53468;48.276;14.416;2023-12-20T10:22:31;5.10;94.30
66610;DHT22;53468;48.276;14.416;2023-12-20T10:28:15;5.20;94.60
66610;DHT22;53468;48.276;14.416;2023-12-20T10:33:45;5.30;94.40
66610;DHT22;53468;48.276;14.416;2023-12-20T10:38:59;5.30;94.50
66610;DHT22;53468;48.276;14.416;2023-12-20T10:44:22;5.40;94.60
66610;DHT22;53468;48.276;14.416;2023-12-20T10:50:05;5.40;94.20
66610;DHT22;53468;48.276;14.416;2023-12-20T10:55:24;5.50;93.50
66610;DHT22;53468;48.276;14.416;2023-12-20T11:00:36;5.50;93.60
66610;DHT22;53468;48.276;14.416;2023-12-20T11:05:56;5.60;93.70
66610;DHT22;53468;48.276;14.416;2023-12-20T11:11:13;5.60;93.40
66610;DHT22;53468;48.276;14.416;2023-12-20T11:16:41;5.60;93.50
66610;DHT22;53468;48.276;14.416;2023-12-20T11:22:03;5.70;92.80
66610;DHT22;53468;48.276;14.416;2023-12-20T11:27:25;5.70;93.50
66610;DHT22;53468;48.276;14.416;2023-12-20T11:38:43;5.70;93.30
66610;DHT22;53468;48.276;14.416;2023-12-20T11:44:31;5.70;93.50
66610;DHT22;53468;48.276;14.416;2023-12-20T11:49:44;5.60;93.50
66610;DHT22;53468;48.276;14.416;2023-12-20T11:55:18;5.60;93.50
66610;DHT22;53468;48.276;14.416;2023-12-20T12:00:34;5.60;93.40
66610;DHT22;53468;48.276;14.416;2023-12-20T12:05:51;5.60;93.40
66610;DHT22;53468;48.276;14.416;2023-12-20T12:11:28;5.60;93.50
66610;DHT22;53468;48.276;14.416;2023-12-20T12:16:58;5.60;93.90
66610;DHT22;53468;48.276;14.416;2023-12-20T12:22:23;5.60;94.20
66610;DHT22;53468;48.276;14.416;2023-12-20T12:27:45;5.70;93.80
66610;DHT22;53468;48.276;14.416;2023-12-20T12:32:59;5.60;93.80
66610;DHT22;53468;48.276;14.416;2023-12-20T12:38:02;5.70;93.80
66610;DHT22;53468;48.276;14.416;2023-12-20T12:43:07;5.70;93.80
66610;DHT22;53468;48.276;14.416;2023-12-20T12:48:15;5.70;93.70
66610;DHT22;53468;48.276;14.416;2023-12-20T12:53:23;5.70;93.60
66610;DHT22;53468;48.276;14.416;2023-12-20T12:58:28;5.70;93.40
66610;DHT22;53468;48.276;14.416;2023-12-20T13:03:32;5.70;93.60
66610;DHT22;53468;48.276;14.416;2023-12-20T13:08:39;5.70;93.50
66610;DHT22;53468;48.276;14.416;2023-12-20T13:13:48;5.70;93.40
66610;DHT22;53468;48.276;14.416;2023-12-20T13:19:23;5.70;93.20
66610;DHT22;53468;48.276;14.416;2023-12-20T13:25:16;5.70;93.20
66610;DHT22;53468;48.276;14.416;2023-12-20T13:31:13;5.80;93.40
66610;DHT22;53468;48.276;14.416;2023-12-20T13:36:36;5.80;93.10
66610;DHT22;53468;48.276;14.416;2023-12-20T13:41:59;5.80;92.70
66610;DHT22;53468;48.276;14.416;2023-12-20T13:47:39;5.90;92.50
66610;DHT22;53468;48.276;14.416;2023-12-20T13:53:10;5.90;92.30
66610;DHT22;53468;48.276;14.416;2023-12-20T13:58:20;5.90;92.20
66610;DHT22;53468;48.276;14.416;2023-12-20T14:03:24;5.90;92.20
66610;DHT22;53468;48.276;14.416;2023-12-20T14:14:18;5.90;92.10
66610;DHT22;53468;48.276;14.416;2023-12-20T14:19:24;5.90;91.70
66610;DHT22;53468;48.276;14.416;2023-12-20T14:24:57;6.00;91.70
66610;DHT22;53468;48.276;14.416;2023-12-20T14:42:24;5.60;90.70
66610;DHT22;53468;48.276;14.416;2023-12-20T14:47:40;5.40;90.70
66610;DHT22;53468;48.276;14.416;2023-12-20T14:53:07;5.30;90.90
66610;DHT22;53468;48.276;14.416;2023-12-20T15:27:50;4.60;90.80
66610;DHT22;53468;48.276;14.416;2023-12-20T15:33:13;4.50;90.90
66610;DHT22;53468;48.276;14.416;2023-12-20T15:38:30;4.40;90.80
66610;DHT22;53468;48.276;14.416;2023-12-20T15:43:46;4.40;90.70
66610;DHT22;53468;48.276;14.416;2023-12-20T15:48:53;4.30;90.90
66610;DHT22;53468;48.276;14.416;2023-12-20T15:54:00;4.20;91.30
66610;DHT22;53468;48.276;14.416;2023-12-20T15:59:49;4.10;91.60
66610;DHT22;53468;48.276;14.416;2023-12-20T16:05:10;4.10;91.80
66610;DHT22;53468;48.276;14.416;2023-12-20T16:10:24;4.10;91.70
66610;DHT22;53468;48.276;14.416;2023-12-20T16:21:26;4.00;91.50
66610;DHT22;53468;48.276;14.416;2023-12-20T16:26:42;3.90;91.20
66610;DHT22;53468;48.276;14.416;2023-12-20T16:31:49;3.80;91.20
66610;DHT22;53468;48.276;14.416;2023-12-20T16:37:06;3.70;91.60
66610;DHT22;53468;48.276;14.416;2023-12-20T16:42:12;3.60;91.80
66610;DHT22;53468;48.276;14.416;2023-12-20T16:47:18;3.50;92.00
66610;DHT22;53468;48.276;14.416;2023-12-20T16:52:27;3.50;92.20
66610;DHT22;53468;48.276;14.416;2023-12-20T16:57:37;3.50;92.00
66610;DHT22;53468;48.276;14.416;2023-12-20T17:02:42;3.40;92.10
66610;DHT22;53468;48.276;14.416;2023-12-20T17:07:47;3.30;92.10
66610;DHT22;53468;48.276;14.416;2023-12-20T17:12:51;3.20;92.20
66610;DHT22;53468;48.276;14.416;2023-12-20T17:17:55;3.10;91.90
66610;DHT22;53468;48.276;14.416;2023-12-20T17:23:00;3.00;92.50
66610;DHT22;53468;48.276;14.416;2023-12-20T17:28:04;3.00;92.60
66610;DHT22;53468;48.276;14.416;2023-12-20T17:33:07;2.90;92.60
66610;DHT22;53468;48.276;14.416;2023-12-20T17:38:12;2.80;93.00
66610;DHT22;53468;48.276;14.416;2023-12-20T17:43:15;2.90;92.60
66610;DHT22;53468;48.276;14.416;2023-12-20T17:48:19;2.90;92.90
66610;DHT22;53468;48.276;14.416;2023-12-20T17:53:24;3.00;93.00
66610;DHT22;53468;48.276;14.416;2023-12-20T17:58:28;3.10;93.00
66610;DHT22;53468;48.276;14.416;2023-12-20T18:03:45;3.10;92.80
66610;DHT22;53468;48.276;14.416;2023-12-20T18:08:52;3.20;92.80
66610;DHT22;53468;48.276;14.416;2023-12-20T18:13:57;3.20;92.80
66610;DHT22;53468;48.276;14.416;2023-12-20T18:19:01;3.20;92.90
66610;DHT22;53468;48.276;14.416;2023-12-20T18:24:08;3.30;93.00
66610;DHT22;53468;48.276;14.416;2023-12-20T18:29:13;3.40;92.80
66610;DHT22;53468;48.276;14.416;2023-12-20T18:34:17;3.50;91.50
66610;DHT22;53468;48.276;14.416;2023-12-20T18:39:25;3.60;90.50
66610;DHT22;53468;48.276;14.416;2023-12-20T18:44:29;3.80;90.30
66610;DHT22;53468;48.276;14.416;2023-12-20T18:49:33;3.70;89.50
66610;DHT22;53468;48.276;14.416;2023-12-20T18:54:38;3.70;88.80
66610;DHT22;53468;48.276;14.416;2023-12-20T18:59:42;3.70;88.90
66610;DHT22;53468;48.276;14.416;2023-12-20T19:04:45;3.50;89.30
66610;DHT22;53468;48.276;14.416;2023-12-20T19:09:52;3.50;90.10
66610;DHT22;53468;48.276;14.416;2023-12-20T19:14:57;3.50;90.00
66610;DHT22;53468;48.276;14.416;2023-12-20T19:20:01;3.50;89.80
66610;DHT22;53468;48.276;14.416;2023-12-20T19:25:09;3.60;89.70
66610;DHT22;53468;48.276;14.416;2023-12-20T19:30:16;3.60;89.60
66610;DHT22;53468;48.276;14.416;2023-12-20T19:35:21;3.50;90.20
66610;DHT22;53468;48.276;14.416;2023-12-20T19:40:28;3.50;89.30
66610;DHT22;53468;48.276;14.416;2023-12-20T19:45:34;3.60;90.00
66610;DHT22;53468;48.276;14.416;2023-12-20T19:50:39;3.70;89.10
66610;DHT22;53468;48.276;14.416;2023-12-20T19:55:46;3.80;87.30
66610;DHT22;53468;48.276;14.416;2023-12-20T20:00:50;4.00;86.00
66610;DHT22;53468;48.276;14.416;2023-12-20T20:05:54;4.20;85.00
66610;DHT22;53468;48.276;14.416;2023-12-20T20:11:15;4.20;85.70
66610;DHT22;53468;48.276;14.416;2023-12-20T20:16:33;4.30;84.90
66610;DHT22;53468;48.276;14.416;2023-12-20T20:21:38;4.30;84.00
66610;DHT22;53468;48.276;14.416;2023-12-20T20:26:46;4.40;83.50
66610;DHT22;53468;48.276;14.416;2023-12-20T20:31:55;4.40;83.90
66610;DHT22;53468;48.276;14.416;2023-12-20T20:37:03;4.60;82.80
66610;DHT22;53468;48.276;14.416;2023-12-20T20:42:11;4.60;82.10
66610;DHT22;53468;48.276;14.416;2023-12-20T20:47:16;4.70;82.50
66610;DHT22;53468;48.276;14.416;2023-12-20T20:52:23;4.70;81.80
66610;DHT22;53468;48.276;14.416;2023-12-20T20:57:35;4.70;81.70
66610;DHT22;53468;48.276;14.416;2023-12-20T21:02:43;4.70;82.70
66610;DHT22;53468;48.276;14.416;2023-12-20T21:07:53;4.70;82.40
66610;DHT22;53468;48.276;14.416;2023-12-20T21:13:04;4.60;82.70
66610;DHT22;53468;48.276;14.416;2023-12-20T21:18:26;4.70;82.00
66610;DHT22;53468;48.276;14.416;2023-12-20T21:23:43;4.70;81.40
66610;DHT22;53468;48.276;14.416;2023-12-20T21:29:08;4.70;81.40
66610;DHT22;53468;48.276;14.416;2023-12-20T21:34:19;4.80;81.70
66610;DHT22;53468;48.276;14.416;2023-12-20T21:39:28;4.70;81.70
66610;DHT22;53468;48.276;14.416;2023-12-20T21:44:58;4.60;81.70
66610;DHT22;53468;48.276;14.416;2023-12-20T21:50:19;4.60;80.90
66610;DHT22;53468;48.276;14.416;2023-12-20T21:55:38;4.70;81.10
66610;DHT22;53468;48.276;14.416;2023-12-20T22:07:23;4.70;80.90
66610;DHT22;53468;48.276;14.416;2023-12-20T22:12:33;4.80;81.00
66610;DHT22;53468;48.276;14.416;2023-12-20T22:17:43;4.80;81.00
66610;DHT22;53468;48.276;14.416;2023-12-20T22:22:55;4.90;80.50
66610;DHT22;53468;48.276;14.416;2023-12-20T22:28:01;4.90;80.20
66610;DHT22;53468;48.276;14.416;2023-12-20T22:33:07;4.90;82.10
66610;DHT22;53468;48.276;14.416;2023-12-20T22:38:18;4.90;82.80
66610;DHT22;53468;48.276;14.416;2023-12-20T22:43:25;4.80;83.60
66610;DHT22;53468;48.276;14.416;2023-12-20T22:48:33;4.70;83.40
66610;DHT22;53468;48.276;14.416;2023-12-20T22:53:47;4.80;83.30
66610;DHT22;53468;48.276;14.416;2023-12-20T22:58:56;4.80;82.90
66610;DHT22;53468;48.276;14.416;2023-12-20T23:04:03;4.80;82.60
66610;DHT22;53468;48.276;14.416;2023-12-20T23:09:12;5.00;82.00
66610;DHT22;53468;48.276;14.416;2023-12-20T23:14:17;4.90;82.40
66610;DHT22;53468;48.276;14.416;2023-12-20T23:19:22;4.90;81.40
66610;DHT22;53468;48.276;14.416;2023-12-20T23:24:29;5.00;80.90
66610;DHT22;53468;48.276;14.416;2023-12-20T23:29:34;5.00;81.30
66610;DHT22;53468;48.276;14.416;2023-12-20T23:34:39;5.00;80.80
66610;DHT22;53468;48.276;14.416;2023-12-20T23:39:49;5.00;80.80
66610;DHT22;53468;48.276;14.416;2023-12-20T23:44:55;5.00;81.70
66610;DHT22;53468;48.276;14.416;2023-12-20T23:50:01;5.00;81.60
66610;DHT22;53468;48.276;14.416;2023-12-20T23:55:09;5.00;80.90
